createdAt,value
2017-07-28T00:00:06.589Z,6.77
2017-07-28T00:02:34.047Z,6.57
2017-07-28T00:05:01.633Z,6.90
2017-07-28T00:07:29.103Z,6.60
2017-07-28T00:09:56.569Z,8.37
2017-07-28T00:12:24.232Z,7.17
2017-07-28T00:14:51.701Z,7.57
2017-07-28T00:17:19.160Z,6.50
2017-07-28T00:19:46.630Z,7.00
2017-07-28T00:22:14.086Z,7.63
2017-07-28T00:24:41.948Z,7.57
2017-07-28T00:27:09.903Z,8.90
2017-07-28T00:29:37.364Z,7.77
2017-07-28T00:32:04.822Z,8.30
2017-07-28T00:34:33.079Z,7.37
2017-07-28T00:37:00.542Z,8.03
2017-07-28T00:39:27.997Z,8.80
2017-07-28T00:41:55.748Z,8.87
2017-07-28T00:44:23.208Z,9.60
2017-07-28T00:46:50.676Z,8.70
2017-07-28T00:49:18.329Z,8.17
2017-07-28T00:51:45.796Z,8.27
2017-07-28T00:54:13.654Z,8.53
2017-07-28T00:56:41.562Z,8.27
2017-07-28T00:59:09.012Z,9.03
2017-07-28T01:01:36.467Z,7.83
2017-07-28T01:04:03.960Z,7.07
2017-07-28T01:06:31.424Z,7.80
2017-07-28T01:08:58.877Z,8.87
2017-07-28T01:11:26.659Z,7.97
2017-07-28T01:13:54.107Z,7.60
2017-07-28T01:16:21.562Z,7.97
2017-07-28T01:18:49.038Z,7.43
2017-07-28T01:21:16.888Z,7.70
2017-07-28T01:23:44.342Z,8.03
2017-07-28T01:26:11.810Z,8.37
2017-07-28T01:28:39.654Z,8.53
2017-07-28T01:31:07.120Z,7.40
2017-07-28T01:33:34.587Z,7.80
2017-07-28T01:36:02.034Z,8.63
2017-07-28T01:38:29.881Z,7.70
2017-07-28T01:40:57.379Z,8.07
2017-07-28T01:43:24.840Z,8.03
2017-07-28T01:45:52.310Z,8.50
2017-07-28T01:48:20.025Z,8.57
2017-07-28T01:50:47.478Z,7.90
2017-07-28T01:53:14.930Z,8.03
2017-07-28T01:55:42.688Z,7.83
2017-07-28T01:58:10.146Z,8.80
2017-07-28T02:00:37.603Z,7.63
2017-07-28T02:03:05.248Z,8.07
2017-07-28T02:05:32.713Z,8.00
2017-07-28T02:08:00.171Z,9.17
2017-07-28T02:10:27.650Z,8.70
2017-07-28T02:12:55.112Z,8.10
2017-07-28T02:15:22.568Z,8.50
2017-07-28T02:17:50.328Z,8.27
2017-07-28T02:20:17.779Z,9.80
2017-07-28T02:22:45.235Z,9.53
2017-07-28T02:25:12.715Z,10.30
2017-07-28T02:27:40.148Z,9.67
2017-07-28T02:30:07.597Z,10.30
2017-07-28T02:32:35.049Z,10.60
2017-07-28T02:35:02.896Z,10.73
2017-07-28T02:37:30.744Z,11.00
2017-07-28T02:39:58.230Z,10.63
2017-07-28T02:42:26.068Z,10.93
2017-07-28T02:44:53.512Z,10.60
2017-07-28T02:47:21.065Z,10.03
2017-07-28T02:49:48.508Z,10.17
2017-07-28T02:52:15.952Z,9.60
2017-07-28T02:54:43.641Z,10.47
2017-07-28T02:57:11.080Z,9.33
2017-07-28T02:59:38.520Z,9.00
2017-07-28T03:02:05.972Z,8.90
2017-07-28T03:04:33.411Z,8.63
2017-07-28T03:07:00.853Z,8.30
2017-07-28T03:09:28.332Z,8.03
2017-07-28T03:11:55.777Z,7.70
2017-07-28T03:14:23.232Z,8.17
2017-07-28T03:16:50.780Z,7.20
2017-07-28T03:19:18.211Z,7.27
2017-07-28T03:21:46.046Z,6.87
2017-07-28T03:24:13.812Z,7.03
2017-07-28T03:26:41.261Z,7.50
2017-07-28T03:29:08.696Z,7.40
2017-07-28T03:31:36.485Z,6.97
2017-07-28T03:34:03.917Z,7.00
2017-07-28T03:36:31.362Z,7.03
2017-07-28T03:38:58.848Z,7.47
2017-07-28T03:41:26.311Z,7.97
2017-07-28T03:43:53.733Z,7.70
2017-07-28T03:46:21.724Z,7.50
2017-07-28T03:48:49.159Z,7.50
2017-07-28T03:51:16.595Z,7.50
2017-07-28T03:53:44.144Z,7.03
2017-07-28T03:56:11.585Z,7.40
2017-07-28T03:58:39.428Z,7.97
2017-07-28T04:01:07.169Z,8.23
2017-07-28T04:03:34.873Z,8.07
2017-07-28T04:06:02.720Z,8.80
2017-07-28T04:08:30.180Z,9.93
2017-07-28T04:10:57.620Z,10.90
2017-07-28T04:13:25.076Z,10.10
2017-07-28T04:15:52.829Z,9.80
2017-07-28T04:18:20.272Z,10.40
2017-07-28T04:20:47.728Z,10.47
2017-07-28T04:23:15.181Z,9.60
2017-07-28T04:25:42.619Z,11.47
2017-07-28T04:28:10.076Z,11.23
2017-07-28T04:30:37.541Z,10.87
2017-07-28T04:33:04.978Z,11.50
2017-07-28T04:35:32.419Z,10.43
2017-07-28T04:37:59.901Z,11.60
2017-07-28T04:40:27.351Z,9.70
2017-07-28T04:42:54.809Z,10.97
2017-07-28T04:45:23.059Z,15.27
2017-07-28T04:47:50.504Z,12.63
2017-07-28T04:50:17.948Z,13.03
2017-07-28T04:52:45.812Z,14.27
2017-07-28T04:55:13.667Z,18.37
2017-07-28T04:57:41.103Z,18.23
2017-07-28T05:00:08.583Z,17.07
2017-07-28T05:02:36.035Z,16.03
2017-07-28T05:05:03.702Z,15.03
2017-07-28T05:07:31.573Z,15.80
2017-07-28T05:09:59.417Z,13.00
2017-07-28T05:12:26.864Z,11.87
2017-07-28T05:14:54.346Z,12.67
2017-07-28T05:17:22.183Z,13.57
2017-07-28T05:19:49.630Z,13.30
2017-07-28T05:22:17.112Z,12.90
2017-07-28T05:24:44.951Z,12.43
2017-07-28T05:27:12.400Z,11.33
2017-07-28T05:29:39.855Z,11.20
2017-07-28T05:32:07.296Z,12.57
2017-07-28T05:34:34.744Z,11.07
2017-07-28T05:37:02.214Z,12.47
2017-07-28T05:39:29.662Z,10.80
2017-07-28T05:41:57.101Z,10.90
2017-07-28T05:44:24.661Z,10.47
2017-07-28T05:46:52.100Z,10.13
2017-07-28T05:49:19.541Z,9.50
2017-07-28T05:51:47.160Z,9.10
2017-07-28T05:54:14.593Z,8.70
2017-07-28T05:56:42.037Z,9.40
2017-07-28T05:59:09.936Z,8.70
2017-07-28T06:01:37.378Z,9.87
2017-07-28T06:04:04.820Z,8.40
2017-07-28T06:06:32.288Z,8.50
2017-07-28T06:08:59.728Z,7.87
2017-07-28T06:11:27.173Z,7.77
2017-07-28T06:13:54.947Z,6.87
2017-07-28T06:16:22.379Z,7.20
2017-07-28T06:18:49.819Z,6.80
2017-07-28T06:21:17.851Z,7.40
2017-07-28T06:23:45.292Z,6.97
2017-07-28T06:26:12.731Z,6.70
2017-07-28T06:28:40.182Z,6.77
2017-07-28T06:31:07.621Z,6.40
2017-07-28T06:33:35.051Z,6.50
2017-07-28T06:36:02.784Z,6.27
2017-07-28T06:38:30.222Z,6.60
2017-07-28T06:40:57.669Z,6.10
2017-07-28T06:43:25.461Z,6.20
2017-07-28T06:45:52.903Z,5.93
2017-07-28T06:48:20.352Z,6.37
2017-07-28T06:50:47.811Z,7.40
2017-07-28T06:53:15.247Z,7.87
2017-07-28T06:55:42.692Z,7.27
2017-07-28T06:58:10.388Z,6.23
2017-07-28T07:00:37.844Z,5.90
2017-07-28T07:03:05.285Z,6.33
2017-07-28T07:05:32.742Z,7.93
2017-07-28T07:08:00.183Z,6.50
2017-07-28T07:10:27.620Z,6.03
2017-07-28T07:12:55.357Z,6.90
2017-07-28T07:15:23.196Z,6.70
2017-07-28T07:17:50.636Z,6.20
2017-07-28T07:20:18.403Z,6.23
2017-07-28T07:22:45.874Z,6.63
2017-07-28T07:25:13.317Z,6.40
2017-07-28T07:27:40.760Z,6.67
2017-07-28T07:30:08.254Z,6.87
2017-07-28T07:32:35.685Z,6.20
2017-07-28T07:35:03.172Z,6.37
2017-07-28T07:37:31.017Z,6.83
2017-07-28T07:39:58.584Z,6.40
2017-07-28T07:42:26.428Z,6.93
2017-07-28T07:44:53.870Z,6.33
2017-07-28T07:47:21.324Z,5.50
2017-07-28T07:49:49.100Z,6.83
2017-07-28T07:52:16.536Z,6.73
2017-07-28T07:54:43.971Z,6.23
2017-07-28T07:57:12.076Z,7.17
2017-07-28T07:59:39.515Z,5.77
2017-07-28T08:02:06.960Z,7.17
2017-07-28T08:04:34.648Z,6.83
2017-07-28T08:07:02.089Z,6.40
2017-07-28T08:09:29.529Z,6.80
2017-07-28T08:11:57.017Z,6.63
2017-07-28T08:14:24.460Z,6.87
2017-07-28T08:16:51.900Z,7.20
2017-07-28T08:19:19.357Z,9.70
2017-07-28T08:21:46.801Z,6.87
2017-07-28T08:24:14.241Z,6.90
2017-07-28T08:26:41.694Z,7.00
2017-07-28T08:29:09.140Z,6.97
2017-07-28T08:31:36.579Z,10.20
2017-07-28T08:34:04.624Z,6.27
2017-07-28T08:36:32.059Z,7.20
2017-07-28T08:38:59.503Z,6.80
2017-07-28T08:41:26.980Z,6.90
2017-07-28T08:43:54.416Z,6.30
2017-07-28T08:46:22.856Z,5.90
2017-07-28T08:48:50.452Z,7.07
2017-07-28T08:51:17.901Z,6.53
2017-07-28T08:53:45.348Z,10.63
2017-07-28T08:56:13.039Z,6.27
2017-07-28T08:58:40.488Z,7.20
2017-07-28T09:01:07.926Z,6.03
2017-07-28T09:03:35.724Z,6.27
2017-07-28T09:06:03.172Z,7.77
2017-07-28T09:08:30.609Z,7.13
2017-07-28T09:10:58.399Z,6.37
2017-07-28T09:13:25.831Z,5.23
2017-07-28T09:15:53.277Z,6.30
2017-07-28T09:18:20.756Z,6.13
2017-07-28T09:20:48.193Z,6.90
2017-07-28T09:23:15.637Z,6.47
2017-07-28T09:25:43.328Z,6.40
2017-07-28T09:28:10.768Z,6.53
2017-07-28T09:30:38.209Z,6.90
2017-07-28T09:33:05.828Z,7.80
2017-07-28T09:35:33.269Z,8.00
2017-07-28T09:38:00.712Z,9.30
2017-07-28T09:40:28.470Z,9.70
2017-07-28T09:42:55.912Z,9.27
2017-07-28T09:45:23.356Z,9.60
2017-07-28T09:47:51.112Z,9.33
2017-07-28T09:50:18.548Z,8.47
2017-07-28T09:52:47.001Z,7.60
2017-07-28T09:55:14.480Z,8.73
2017-07-28T09:57:41.920Z,9.30
2017-07-28T10:00:09.760Z,8.07
2017-07-28T10:02:37.408Z,8.03
2017-07-28T10:05:04.888Z,8.53
2017-07-28T10:07:32.328Z,9.43
2017-07-28T10:09:59.791Z,8.97
2017-07-28T10:12:27.241Z,8.33
2017-07-28T10:14:54.684Z,9.97
2017-07-28T10:17:22.450Z,8.70
2017-07-28T10:19:49.888Z,8.80
2017-07-28T10:22:17.335Z,10.73
2017-07-28T10:24:44.797Z,10.70
2017-07-28T10:27:12.240Z,9.23
2017-07-28T10:29:39.692Z,9.00
2017-07-28T10:32:07.152Z,6.83
2017-07-28T10:34:34.611Z,8.57
2017-07-28T10:37:02.055Z,9.83
2017-07-28T10:39:29.512Z,8.40
2017-07-28T10:41:56.956Z,8.17
2017-07-28T10:44:24.399Z,8.30
2017-07-28T10:46:52.628Z,7.67
2017-07-28T10:49:20.064Z,8.27
2017-07-28T10:51:48.220Z,7.13
2017-07-28T10:54:15.925Z,6.40
2017-07-28T10:56:43.365Z,6.57
2017-07-28T10:59:10.804Z,6.40
2017-07-28T11:01:38.259Z,7.10
2017-07-28T11:04:05.695Z,6.33
2017-07-28T11:06:33.132Z,6.43
2017-07-28T11:09:00.840Z,5.60
2017-07-28T11:11:28.284Z,5.57
2017-07-28T11:13:55.727Z,5.83
2017-07-28T11:16:23.517Z,5.00
2017-07-28T11:18:50.955Z,5.70
2017-07-28T11:21:18.400Z,6.17
2017-07-28T11:23:46.185Z,6.90
2017-07-28T11:26:13.629Z,5.73
2017-07-28T11:28:41.072Z,7.13
2017-07-28T11:31:08.567Z,5.80
2017-07-28T11:33:36.009Z,6.43
2017-07-28T11:36:03.465Z,4.00
2017-07-28T11:38:30.924Z,4.20
2017-07-28T11:40:58.368Z,3.97
2017-07-28T11:43:25.814Z,4.10
2017-07-28T11:45:53.289Z,4.37
2017-07-28T11:48:20.729Z,3.80
2017-07-28T11:50:48.333Z,4.60
2017-07-28T11:53:15.805Z,5.40
2017-07-28T11:55:43.244Z,4.93
2017-07-28T11:58:11.081Z,4.93
2017-07-28T12:00:38.540Z,4.83
2017-07-28T12:03:05.972Z,3.93
2017-07-28T12:05:33.547Z,3.33
2017-07-28T12:08:01.012Z,3.20
2017-07-28T12:10:28.460Z,3.77
2017-07-28T12:12:55.940Z,3.30
2017-07-28T12:15:23.370Z,2.73
2017-07-28T12:17:51.122Z,3.17
2017-07-28T12:20:18.571Z,3.00
2017-07-28T12:22:46.016Z,3.30
2017-07-28T12:25:13.487Z,2.90
2017-07-28T12:27:41.028Z,3.37
2017-07-28T12:30:08.467Z,3.20
2017-07-28T12:32:35.943Z,3.23
2017-07-28T12:35:03.408Z,3.37
2017-07-28T12:37:30.878Z,3.97
2017-07-28T12:39:58.395Z,4.40
2017-07-28T12:42:25.828Z,3.97
2017-07-28T12:44:53.300Z,3.70
2017-07-28T12:47:20.732Z,3.70
2017-07-28T12:49:48.172Z,4.00
2017-07-28T12:52:16.335Z,3.77
2017-07-28T12:54:43.777Z,4.50
2017-07-28T12:57:11.232Z,4.20
2017-07-28T12:59:38.794Z,5.03
2017-07-28T13:02:06.234Z,3.73
2017-07-28T13:04:33.677Z,3.50
2017-07-28T13:07:01.310Z,2.97
2017-07-28T13:09:28.753Z,3.37
2017-07-28T13:11:56.192Z,3.23
2017-07-28T13:14:23.670Z,3.13
2017-07-28T13:16:51.103Z,3.57
2017-07-28T13:19:18.541Z,2.97
2017-07-28T13:21:46.028Z,3.20
2017-07-28T13:24:13.476Z,2.97
2017-07-28T13:26:40.940Z,3.17
2017-07-28T13:29:08.421Z,3.10
2017-07-28T13:31:35.941Z,2.70
2017-07-28T13:34:03.382Z,2.80
2017-07-28T13:36:31.122Z,3.93
2017-07-28T13:38:58.559Z,3.10
2017-07-28T13:41:26.005Z,3.87
2017-07-28T13:43:53.738Z,4.30
2017-07-28T13:46:26.755Z,4.50
2017-07-28T13:48:54.231Z,4.70
2017-07-28T13:51:21.668Z,3.83
2017-07-28T13:53:49.118Z,3.50
2017-07-28T13:56:16.592Z,3.70
2017-07-28T13:58:44.029Z,3.90
2017-07-28T14:01:11.467Z,3.60
2017-07-28T14:03:39.266Z,3.77
2017-07-28T14:06:06.689Z,3.90
2017-07-28T14:08:34.128Z,3.70
2017-07-28T14:11:01.588Z,4.47
2017-07-28T14:13:29.027Z,3.60
2017-07-28T14:15:56.861Z,3.50
2017-07-28T14:18:24.338Z,3.17
2017-07-28T14:20:51.786Z,3.53
2017-07-28T14:23:19.231Z,3.10
2017-07-28T14:25:46.988Z,14.90
2017-07-28T14:28:14.432Z,4.70
2017-07-28T14:30:41.873Z,3.07
2017-07-28T14:33:09.350Z,3.00
2017-07-28T14:35:36.788Z,2.80
2017-07-28T14:38:04.224Z,2.77
2017-07-28T14:40:31.693Z,3.23
2017-07-28T14:42:59.139Z,2.80
2017-07-28T14:45:26.581Z,3.00
2017-07-28T14:47:54.332Z,3.30
2017-07-28T14:50:21.765Z,3.50
2017-07-28T14:52:49.205Z,3.00
2017-07-28T14:55:16.987Z,3.23
2017-07-28T14:57:44.416Z,3.27
2017-07-28T15:00:11.855Z,3.27
2017-07-28T15:02:39.623Z,3.47
2017-07-28T15:05:07.066Z,3.40
2017-07-28T15:07:34.611Z,3.30
2017-07-28T15:10:02.063Z,3.40
2017-07-28T15:12:29.500Z,3.50
2017-07-28T15:14:56.943Z,3.97
2017-07-28T15:17:24.412Z,4.50
2017-07-28T15:19:51.857Z,3.70
2017-07-28T15:22:19.292Z,3.27
2017-07-28T15:24:47.147Z,3.57
2017-07-28T15:27:14.589Z,3.20
2017-07-28T15:29:42.024Z,4.10
2017-07-28T15:32:09.691Z,5.30
2017-07-28T15:34:37.136Z,4.67
2017-07-28T15:37:04.575Z,5.30
2017-07-28T15:39:32.034Z,4.77
2017-07-28T15:41:59.476Z,4.40
2017-07-28T15:44:26.909Z,6.23
2017-07-28T15:46:54.629Z,5.30
2017-07-28T15:49:22.072Z,5.20
2017-07-28T15:51:49.529Z,4.83
2017-07-28T15:54:16.981Z,5.50
2017-07-28T15:56:44.422Z,5.20
2017-07-28T15:59:20.376Z,4.80
2017-07-28T16:01:47.809Z,4.63
2017-07-28T16:04:15.257Z,4.90
2017-07-28T16:06:43.308Z,5.10
2017-07-28T16:09:10.745Z,5.10
2017-07-28T16:11:38.187Z,4.60
2017-07-28T16:14:05.857Z,4.83
2017-07-28T16:16:33.300Z,5.07
2017-07-28T16:19:00.769Z,5.00
2017-07-28T16:21:28.217Z,4.10
2017-07-28T16:23:55.665Z,4.00
2017-07-28T16:26:23.139Z,4.10
2017-07-28T16:28:50.662Z,4.13
2017-07-28T16:31:18.084Z,3.87
2017-07-28T16:33:45.920Z,4.20
2017-07-28T16:36:13.560Z,4.20
2017-07-28T16:38:41.004Z,3.60
2017-07-28T16:41:08.452Z,4.40
2017-07-28T16:43:35.924Z,3.77
2017-07-28T16:46:03.368Z,4.13
2017-07-28T16:48:30.809Z,4.10
2017-07-28T16:50:58.292Z,4.30
2017-07-28T16:53:25.727Z,4.20
2017-07-28T16:55:53.174Z,4.30
2017-07-28T16:58:21.063Z,4.50
2017-07-28T17:00:48.516Z,4.60
2017-07-28T17:03:15.952Z,5.40
2017-07-28T17:05:44.359Z,5.63
2017-07-28T17:08:11.796Z,6.20
2017-07-28T17:10:39.235Z,4.83
2017-07-28T17:13:06.715Z,4.97
2017-07-28T17:15:34.164Z,5.17
2017-07-28T17:18:01.633Z,5.37
2017-07-28T17:20:29.103Z,5.70
2017-07-28T17:22:56.540Z,5.80
2017-07-28T17:25:23.975Z,6.27
2017-07-28T17:27:51.761Z,5.50
2017-07-28T17:30:19.201Z,8.10
2017-07-28T17:32:46.648Z,5.73
2017-07-28T17:35:14.375Z,6.00
2017-07-28T17:37:41.859Z,5.80
2017-07-28T17:40:09.305Z,5.13
2017-07-28T17:42:37.001Z,4.87
2017-07-28T17:45:04.445Z,5.30
2017-07-28T17:47:31.892Z,5.50
2017-07-28T17:49:59.372Z,5.13
2017-07-28T17:52:26.840Z,4.93
2017-07-28T17:54:54.275Z,4.67
2017-07-28T17:57:21.729Z,5.13
2017-07-28T17:59:49.211Z,5.37
2017-07-28T18:02:16.665Z,5.20
2017-07-28T18:04:44.109Z,5.43
2017-07-28T18:07:11.583Z,6.60
2017-07-28T18:09:39.428Z,5.83
2017-07-28T18:12:06.872Z,5.73
2017-07-28T18:14:34.749Z,5.27
2017-07-28T18:17:02.268Z,5.17
2017-07-28T18:19:29.722Z,5.80
2017-07-28T18:21:57.186Z,6.53
2017-07-28T18:24:24.628Z,7.50
2017-07-28T18:26:52.081Z,11.87
2017-07-28T18:29:19.637Z,8.13
2017-07-28T18:31:47.090Z,6.57
2017-07-28T18:34:15.816Z,5.17
2017-07-28T18:36:43.256Z,5.07
2017-07-28T18:39:10.694Z,4.43
2017-07-28T18:41:38.360Z,4.80
2017-07-28T18:44:05.953Z,24.33
2017-07-28T18:46:33.432Z,22.20
2017-07-28T18:49:01.276Z,22.43
2017-07-28T18:51:28.723Z,21.27
2017-07-28T18:53:56.480Z,30.80
2017-07-28T18:56:23.938Z,62.93
2017-07-28T18:58:51.380Z,57.40
2017-07-28T19:01:19.159Z,57.70
2017-07-28T19:03:46.640Z,37.73
2017-07-28T19:06:14.144Z,18.20
2017-07-28T19:08:41.616Z,12.63
2017-07-28T19:11:09.352Z,7.50
2017-07-28T19:13:39.478Z,9.37
2017-07-28T19:16:06.945Z,6.93
2017-07-28T19:18:34.431Z,6.30
2017-07-28T19:21:01.894Z,6.13
2017-07-28T19:23:29.746Z,8.90
2017-07-28T19:25:57.308Z,5.70
2017-07-28T19:28:25.192Z,5.07
2017-07-28T19:30:53.064Z,5.20
2017-07-28T19:33:20.504Z,4.30
2017-07-28T19:35:48.461Z,5.33
2017-07-28T19:38:15.935Z,5.80
2017-07-28T19:40:43.394Z,8.33
2017-07-28T19:43:10.949Z,5.33
2017-07-28T19:45:38.404Z,31.87
2017-07-28T19:48:05.872Z,30.80
2017-07-28T19:50:33.686Z,20.33
2017-07-28T19:53:01.125Z,13.83
2017-07-28T19:55:28.576Z,15.57
2017-07-28T19:57:56.052Z,15.87
2017-07-28T20:00:23.496Z,19.13
2017-07-28T20:02:50.940Z,11.47
2017-07-28T20:05:18.420Z,11.70
2017-07-28T20:07:45.857Z,13.20
2017-07-28T20:10:13.304Z,9.20
2017-07-28T20:12:40.778Z,18.50
2017-07-28T20:15:08.225Z,6.57
2017-07-28T20:17:35.673Z,6.73
2017-07-28T20:20:03.141Z,7.50
2017-07-28T20:22:30.579Z,6.50
2017-07-28T20:24:58.025Z,5.83
2017-07-28T20:27:25.492Z,8.50
2017-07-28T20:29:52.931Z,7.50
2017-07-28T20:32:20.372Z,5.60
2017-07-28T20:34:47.844Z,5.10
2017-07-28T20:37:15.285Z,5.03
2017-07-28T20:39:42.719Z,4.37
2017-07-28T20:42:10.536Z,4.90
2017-07-28T20:44:37.972Z,5.60
2017-07-28T20:47:05.426Z,6.77
2017-07-28T20:49:33.086Z,4.70
2017-07-28T20:52:00.514Z,5.50
2017-07-28T20:54:27.951Z,5.20
2017-07-28T20:56:55.800Z,5.00
2017-07-28T20:59:23.243Z,4.53
2017-07-28T21:01:50.672Z,4.80
2017-07-28T21:04:18.224Z,4.57
2017-07-28T21:06:45.665Z,4.23
2017-07-28T21:09:13.101Z,5.00
2017-07-28T21:11:40.959Z,4.43
2017-07-28T21:14:16.738Z,8.50
2017-07-28T21:16:44.205Z,7.27
2017-07-28T21:19:11.688Z,5.07
2017-07-28T21:21:39.129Z,5.40
2017-07-28T21:24:06.676Z,5.20
2017-07-28T21:26:34.113Z,5.87
2017-07-28T21:29:01.561Z,5.03
2017-07-28T21:31:29.037Z,4.53
2017-07-28T21:33:56.471Z,5.40
2017-07-28T21:36:23.908Z,4.57
2017-07-28T21:38:51.761Z,4.83
2017-07-28T21:41:19.200Z,4.87
2017-07-28T21:43:46.638Z,4.80
2017-07-28T21:46:14.100Z,5.33
2017-07-28T21:48:41.543Z,5.30
2017-07-28T21:51:08.984Z,5.20
2017-07-28T21:53:36.441Z,5.67
2017-07-28T21:56:03.876Z,6.00
2017-07-28T21:58:31.306Z,6.00
2017-07-28T22:00:59.172Z,5.40
2017-07-28T22:03:26.839Z,5.30
2017-07-28T22:05:54.669Z,5.90
2017-07-28T22:08:22.320Z,5.10
2017-07-28T22:10:49.764Z,4.90
2017-07-28T22:13:17.206Z,6.60
2017-07-28T22:15:45.097Z,5.47
2017-07-28T22:18:12.535Z,5.80
2017-07-28T22:20:39.977Z,5.40
2017-07-28T22:23:07.541Z,6.10
2017-07-28T22:25:34.984Z,6.10
2017-07-28T22:28:02.429Z,5.80
2017-07-28T22:30:30.080Z,6.30
2017-07-28T22:32:57.528Z,6.00
2017-07-28T22:35:25.365Z,5.57
2017-07-28T22:37:52.837Z,6.20
2017-07-28T22:40:20.275Z,6.03
2017-07-28T22:42:47.725Z,6.90
2017-07-28T22:45:15.184Z,6.83
2017-07-28T22:47:42.634Z,6.53
2017-07-28T22:50:10.071Z,6.80
2017-07-28T22:52:37.547Z,6.30
2017-07-28T22:55:04.984Z,7.33
2017-07-28T22:57:32.428Z,6.80
2017-07-28T22:59:59.909Z,6.93
2017-07-28T23:02:27.348Z,7.00
2017-07-28T23:04:54.788Z,7.40
2017-07-28T23:07:22.556Z,8.17
2017-07-28T23:09:49.999Z,6.70
2017-07-28T23:12:17.433Z,6.57
2017-07-28T23:14:44.896Z,7.20
2017-07-28T23:17:12.331Z,8.70
2017-07-28T23:19:40.168Z,7.63
2017-07-28T23:22:07.897Z,7.60
2017-07-28T23:24:35.341Z,7.13
2017-07-28T23:27:02.783Z,6.50
2017-07-28T23:29:30.379Z,7.70
2017-07-28T23:31:57.815Z,6.73
2017-07-28T23:34:25.256Z,7.07
2017-07-28T23:36:52.972Z,7.17
2017-07-28T23:39:20.416Z,6.90
2017-07-28T23:41:47.856Z,9.17
2017-07-28T23:44:15.532Z,6.90
2017-07-28T23:46:42.981Z,7.50
2017-07-28T23:49:10.425Z,7.20
2017-07-28T23:51:38.100Z,7.30
2017-07-28T23:54:05.545Z,7.20
2017-07-28T23:56:32.984Z,8.50
2017-07-28T23:59:00.459Z,7.80
